createdAt,value
2019-03-19T00:01:40.227Z,19.67
2019-03-19T00:04:00.847Z,14.28
2019-03-19T00:06:21.302Z,18.57
2019-03-19T00:08:41.863Z,15.03
2019-03-19T00:11:02.580Z,17.05
2019-03-19T00:13:23.121Z,15.13
2019-03-19T00:15:43.788Z,12.68
2019-03-19T00:18:04.438Z,11.95
2019-03-19T00:20:24.995Z,13.93
2019-03-19T00:22:45.870Z,11.88
2019-03-19T00:25:07.042Z,11.63
2019-03-19T00:27:27.696Z,12.43
2019-03-19T00:29:48.247Z,12.15
2019-03-19T00:32:08.911Z,12.82
2019-03-19T00:34:29.439Z,14.95
2019-03-19T00:36:49.969Z,11.38
2019-03-19T00:39:10.588Z,12.28
2019-03-19T00:41:31.044Z,12.70
2019-03-19T00:43:51.582Z,12.55
2019-03-19T00:46:12.284Z,14.13
2019-03-19T00:48:33.820Z,18.25
2019-03-19T00:50:54.986Z,11.38
2019-03-19T00:53:15.524Z,11.73
2019-03-19T00:55:40.652Z,11.35
2019-03-19T00:57:57.753Z,11.27
2019-03-19T01:00:19.740Z,11.03
2019-03-19T01:02:40.341Z,12.55
2019-03-19T01:05:01.104Z,11.93
2019-03-19T01:07:21.723Z,15.80
2019-03-19T01:09:42.276Z,16.65
2019-03-19T01:12:02.796Z,11.03
2019-03-19T01:14:23.321Z,9.03
2019-03-19T01:16:43.929Z,10.58
2019-03-19T01:19:04.520Z,13.03
2019-03-19T01:21:25.139Z,9.85
2019-03-19T01:23:45.640Z,11.15
2019-03-19T01:26:06.156Z,10.60
2019-03-19T01:28:26.850Z,9.08
2019-03-19T01:30:47.356Z,7.70
2019-03-19T01:33:08.877Z,9.43
2019-03-19T01:35:29.398Z,9.18
2019-03-19T01:37:49.985Z,8.88
2019-03-19T01:40:29.772Z,8.90
2019-03-19T01:42:50.364Z,8.45
2019-03-19T01:45:13.829Z,8.05
2019-03-19T01:47:34.440Z,9.83
2019-03-19T01:49:54.959Z,7.83
2019-03-19T01:52:15.415Z,6.58
2019-03-19T01:54:35.884Z,7.00
2019-03-19T01:56:56.469Z,9.25
2019-03-19T01:59:16.964Z,7.70
2019-03-19T02:01:37.516Z,11.50
2019-03-19T02:03:58.038Z,8.55
2019-03-19T02:06:18.668Z,11.20
2019-03-19T02:08:39.095Z,9.18
2019-03-19T02:10:59.554Z,7.95
2019-03-19T02:13:20.090Z,11.28
2019-03-19T02:15:40.732Z,8.38
2019-03-19T02:18:01.371Z,5.08
2019-03-19T02:20:21.966Z,6.40
2019-03-19T02:22:42.647Z,7.40
2019-03-19T02:25:03.244Z,7.92
2019-03-19T02:27:23.784Z,7.92
2019-03-19T02:29:44.272Z,8.80
2019-03-19T02:32:04.890Z,8.95
2019-03-19T02:34:25.364Z,6.47
2019-03-19T02:36:45.870Z,7.03
2019-03-19T02:39:07.096Z,8.90
2019-03-19T02:41:27.655Z,8.78
2019-03-19T02:43:48.164Z,9.38
2019-03-19T02:46:08.629Z,7.10
2019-03-19T02:48:29.134Z,9.38
2019-03-19T02:50:49.779Z,5.37
2019-03-19T02:53:10.530Z,5.22
2019-03-19T02:55:31.151Z,9.10
2019-03-19T02:57:51.639Z,7.55
2019-03-19T03:00:18.558Z,6.60
2019-03-19T03:02:39.086Z,6.58
2019-03-19T03:04:59.731Z,5.58
2019-03-19T03:07:20.432Z,5.92
2019-03-19T03:09:40.887Z,7.35
2019-03-19T03:12:01.397Z,5.47
2019-03-19T03:14:21.861Z,8.40
2019-03-19T03:16:42.350Z,7.58
2019-03-19T03:19:02.962Z,4.50
2019-03-19T03:21:23.426Z,4.80
2019-03-19T03:23:43.953Z,6.58
2019-03-19T03:26:04.459Z,4.45
2019-03-19T03:28:24.982Z,4.00
2019-03-19T03:30:45.563Z,7.17
2019-03-19T03:33:06.271Z,3.62
2019-03-19T03:35:26.784Z,5.78
2019-03-19T03:37:47.437Z,5.42
2019-03-19T03:40:15.406Z,6.85
2019-03-19T03:42:36.189Z,4.72
2019-03-19T03:44:56.721Z,7.47
2019-03-19T03:47:17.241Z,5.90
2019-03-19T03:49:37.947Z,5.58
2019-03-19T03:51:58.558Z,5.85
2019-03-19T03:54:19.105Z,4.45
2019-03-19T03:56:39.625Z,5.37
2019-03-19T03:59:01.346Z,7.50
2019-03-19T04:01:22.097Z,5.75
2019-03-19T04:03:42.637Z,5.20
2019-03-19T04:06:03.237Z,6.50
2019-03-19T04:08:24.094Z,4.70
2019-03-19T04:10:44.597Z,5.12
2019-03-19T04:13:05.330Z,6.83
2019-03-19T04:15:25.843Z,3.60
2019-03-19T04:17:46.627Z,3.72
2019-03-19T04:20:10.213Z,8.28
2019-03-19T04:22:30.439Z,5.78
2019-03-19T04:24:50.981Z,3.87
2019-03-19T04:27:16.352Z,4.30
2019-03-19T04:29:33.296Z,4.43
2019-03-19T04:31:53.764Z,6.33
2019-03-19T04:34:14.203Z,5.42
2019-03-19T04:36:34.694Z,7.20
2019-03-19T04:38:55.248Z,5.90
2019-03-19T04:41:15.851Z,4.47
2019-03-19T04:43:36.400Z,8.30
2019-03-19T04:45:56.905Z,4.70
2019-03-19T04:48:17.446Z,6.97
2019-03-19T04:50:37.957Z,5.08
2019-03-19T04:52:58.462Z,8.33
2019-03-19T04:55:18.942Z,4.58
2019-03-19T04:57:39.561Z,7.17
2019-03-19T05:00:00.182Z,3.67
2019-03-19T05:02:20.955Z,3.75
2019-03-19T05:04:42.472Z,8.18
2019-03-19T05:07:03.093Z,9.58
2019-03-19T05:09:23.564Z,9.00
2019-03-19T05:11:44.259Z,7.58
2019-03-19T05:14:05.159Z,5.58
2019-03-19T05:16:25.807Z,12.25
2019-03-19T05:18:46.371Z,6.25
2019-03-19T05:21:06.972Z,7.87
2019-03-19T05:23:28.787Z,10.80
2019-03-19T05:25:49.299Z,6.75
2019-03-19T05:28:09.897Z,8.05
2019-03-19T05:30:30.436Z,8.78
2019-03-19T05:32:51.237Z,11.28
2019-03-19T05:35:11.813Z,9.65
2019-03-19T05:37:32.371Z,8.60
2019-03-19T05:39:52.829Z,5.97
2019-03-19T05:42:13.387Z,11.33
2019-03-19T05:44:33.920Z,7.45
2019-03-19T05:46:54.439Z,9.53
2019-03-19T05:49:14.918Z,12.60
2019-03-19T05:51:35.515Z,12.98
2019-03-19T05:53:55.971Z,11.15
2019-03-19T05:56:16.529Z,10.03
2019-03-19T05:58:37.105Z,8.55
2019-03-19T06:00:57.827Z,9.53
2019-03-19T06:03:18.388Z,7.50
2019-03-19T06:05:39.071Z,9.33
2019-03-19T06:07:59.608Z,6.92
2019-03-19T06:10:20.143Z,6.75
2019-03-19T06:12:40.791Z,9.65
2019-03-19T06:15:03.146Z,9.08
2019-03-19T06:17:23.389Z,7.72
2019-03-19T06:19:43.997Z,12.07
2019-03-19T06:22:07.726Z,10.30
2019-03-19T06:24:28.235Z,9.13
2019-03-19T06:26:48.778Z,14.68
2019-03-19T06:29:09.249Z,6.85
2019-03-19T06:31:29.975Z,14.70
2019-03-19T06:33:50.511Z,14.38
2019-03-19T06:36:11.220Z,8.28
2019-03-19T06:38:31.798Z,10.15
2019-03-19T06:40:52.396Z,8.45
2019-03-19T06:43:13.087Z,10.75
2019-03-19T06:45:33.620Z,10.50
2019-03-19T06:47:54.285Z,16.02
2019-03-19T06:50:15.752Z,10.15
2019-03-19T06:52:36.465Z,10.88
2019-03-19T06:54:56.963Z,6.65
2019-03-19T06:57:17.655Z,9.75
2019-03-19T06:59:39.964Z,12.73
2019-03-19T07:02:00.277Z,9.70
2019-03-19T07:04:20.765Z,14.45
2019-03-19T07:06:41.508Z,10.72
2019-03-19T07:09:02.030Z,12.37
2019-03-19T07:11:22.957Z,8.85
2019-03-19T07:13:43.954Z,8.03
2019-03-19T07:16:04.687Z,9.53
2019-03-19T07:18:25.212Z,7.25
2019-03-19T07:20:45.904Z,7.85
2019-03-19T07:23:06.416Z,8.40
2019-03-19T07:25:26.957Z,7.28
2019-03-19T07:27:47.460Z,9.93
2019-03-19T07:30:21.588Z,6.20
2019-03-19T07:32:42.300Z,8.00
2019-03-19T07:35:02.929Z,9.23
2019-03-19T07:37:26.343Z,8.63
2019-03-19T07:39:46.861Z,5.75
2019-03-19T07:42:07.566Z,5.35
2019-03-19T07:44:28.109Z,9.88
2019-03-19T07:46:48.700Z,15.65
2019-03-19T07:49:09.303Z,6.87
2019-03-19T07:51:29.908Z,12.47
2019-03-19T07:53:50.493Z,14.53
2019-03-19T07:56:11.057Z,7.72
2019-03-19T07:58:44.491Z,7.72
2019-03-19T08:00:53.852Z,11.50
2019-03-19T08:03:16.407Z,6.72
2019-03-19T08:05:36.204Z,12.17
2019-03-19T08:07:56.772Z,11.73
2019-03-19T08:10:18.300Z,12.23
2019-03-19T08:12:38.972Z,8.70
2019-03-19T08:15:00.575Z,13.72
2019-03-19T08:17:21.149Z,23.55
2019-03-19T08:19:41.698Z,15.72
2019-03-19T08:22:02.411Z,18.75
2019-03-19T08:24:22.975Z,12.53
2019-03-19T08:26:43.572Z,12.58
2019-03-19T08:29:04.415Z,14.78
2019-03-19T08:31:24.938Z,14.83
2019-03-19T08:33:45.798Z,15.45
2019-03-19T08:36:09.542Z,11.18
2019-03-19T08:38:28.157Z,9.87
2019-03-19T08:40:50.930Z,13.18
2019-03-19T08:43:11.155Z,8.68
2019-03-19T08:45:31.755Z,10.58
2019-03-19T08:47:52.502Z,9.30
2019-03-19T08:50:18.311Z,10.68
2019-03-19T08:52:38.823Z,8.58
2019-03-19T08:54:59.338Z,9.25
2019-03-19T08:57:19.973Z,8.28
2019-03-19T08:59:40.729Z,8.88
2019-03-19T09:02:01.441Z,10.65
2019-03-19T09:04:22.201Z,10.50
2019-03-19T09:06:42.736Z,8.20
2019-03-19T09:09:04.478Z,10.88
2019-03-19T09:11:25.031Z,12.37
2019-03-19T09:13:45.597Z,16.52
2019-03-19T09:16:06.531Z,12.93
2019-03-19T09:18:27.075Z,12.07
2019-03-19T09:20:48.768Z,16.25
2019-03-19T09:23:08.874Z,9.65
2019-03-19T09:25:29.491Z,15.53
2019-03-19T09:27:50.025Z,9.23
2019-03-19T09:30:21.439Z,9.65
2019-03-19T09:32:42.038Z,13.35
2019-03-19T09:35:04.273Z,9.70
2019-03-19T09:37:24.774Z,9.45
2019-03-19T09:39:45.279Z,10.20
2019-03-19T09:42:06.910Z,7.67
2019-03-19T09:44:27.413Z,7.17
2019-03-19T09:46:47.926Z,8.73
2019-03-19T09:49:08.401Z,8.15
2019-03-19T09:51:28.897Z,9.88
2019-03-19T09:53:49.703Z,10.90
2019-03-19T09:56:10.219Z,8.50
2019-03-19T09:58:30.759Z,9.60
2019-03-19T10:00:51.375Z,10.65
2019-03-19T10:03:11.943Z,10.13
2019-03-19T10:05:32.443Z,6.90
2019-03-19T10:07:55.651Z,7.55
2019-03-19T10:10:17.604Z,9.77
2019-03-19T10:12:38.115Z,8.10
2019-03-19T10:14:58.788Z,5.67
2019-03-19T10:17:19.610Z,7.97
2019-03-19T10:19:40.186Z,9.88
2019-03-19T10:22:00.745Z,7.00
2019-03-19T10:24:21.341Z,7.12
2019-03-19T10:26:42.234Z,8.35
2019-03-19T10:29:02.814Z,7.62
2019-03-19T10:31:23.619Z,8.63
2019-03-19T10:33:44.141Z,8.23
2019-03-19T10:36:04.795Z,6.65
2019-03-19T10:38:25.310Z,8.13
2019-03-19T10:40:45.976Z,11.93
2019-03-19T10:43:06.873Z,7.95
2019-03-19T10:45:27.505Z,5.55
2019-03-19T10:47:48.037Z,8.43
2019-03-19T10:50:25.895Z,7.95
2019-03-19T10:52:46.465Z,7.53
2019-03-19T10:55:07.586Z,7.08
2019-03-19T10:57:28.091Z,5.87
2019-03-19T10:59:51.616Z,6.58
2019-03-19T11:02:12.177Z,7.90
2019-03-19T11:04:36.488Z,6.22
2019-03-19T11:06:58.360Z,6.10
2019-03-19T11:09:20.325Z,5.75
2019-03-19T11:11:41.401Z,5.83
2019-03-19T11:14:02.005Z,5.92
2019-03-19T11:16:22.505Z,7.15
2019-03-19T11:18:42.965Z,10.53
2019-03-19T11:21:03.624Z,9.13
2019-03-19T11:23:24.119Z,9.33
2019-03-19T11:25:54.114Z,8.00
2019-03-19T11:28:06.849Z,8.40
2019-03-19T11:30:31.501Z,4.75
2019-03-19T11:32:52.042Z,6.53
2019-03-19T11:35:14.267Z,5.53
2019-03-19T11:37:34.839Z,5.28
2019-03-19T11:39:55.628Z,5.55
2019-03-19T11:42:16.145Z,5.08
2019-03-19T11:44:36.751Z,6.00
2019-03-19T11:46:58.284Z,6.45
2019-03-19T11:49:18.801Z,5.47
2019-03-19T11:51:39.448Z,8.15
2019-03-19T11:54:00.187Z,8.58
2019-03-19T11:56:20.722Z,9.00
2019-03-19T11:58:41.232Z,6.95
2019-03-19T12:01:04.138Z,8.90
2019-03-19T12:03:24.671Z,5.85
2019-03-19T12:05:45.317Z,10.80
2019-03-19T12:08:06.228Z,13.68
2019-03-19T12:10:26.775Z,7.20
2019-03-19T12:12:47.412Z,6.55
2019-03-19T12:15:10.049Z,7.58
2019-03-19T12:17:30.372Z,6.45
2019-03-19T12:19:50.897Z,8.85
2019-03-19T12:22:11.574Z,6.05
2019-03-19T12:24:32.870Z,8.50
2019-03-19T12:26:53.531Z,7.17
2019-03-19T12:29:33.400Z,6.92
2019-03-19T12:31:54.082Z,7.20
2019-03-19T12:34:15.683Z,8.10
2019-03-19T12:36:36.349Z,5.45
2019-03-19T12:39:03.196Z,12.53
2019-03-19T12:41:26.744Z,7.70
2019-03-19T12:43:47.297Z,13.62
2019-03-19T12:46:08.118Z,10.75
2019-03-19T12:48:30.354Z,13.22
2019-03-19T12:50:51.037Z,8.18
2019-03-19T12:53:11.684Z,6.53
2019-03-19T12:55:32.209Z,8.68
2019-03-19T12:57:53.175Z,10.93
2019-03-19T13:00:37.515Z,11.53
2019-03-19T13:02:58.319Z,7.53
2019-03-19T13:05:19.152Z,6.67
2019-03-19T13:07:39.980Z,7.85
2019-03-19T13:10:00.652Z,7.42
2019-03-19T13:12:21.420Z,11.22
2019-03-19T13:14:41.853Z,7.53
2019-03-19T13:17:02.312Z,8.03
2019-03-19T13:19:22.840Z,7.37
2019-03-19T13:21:43.439Z,9.43
2019-03-19T13:24:03.548Z,7.08
2019-03-19T13:26:24.154Z,8.15
2019-03-19T13:28:44.112Z,9.10
2019-03-19T13:31:04.693Z,9.30
2019-03-19T13:33:25.215Z,5.75
2019-03-19T13:35:45.723Z,8.23
2019-03-19T13:38:06.425Z,8.03
2019-03-19T13:40:28.566Z,6.53
2019-03-19T13:42:49.325Z,8.48
2019-03-19T13:45:15.609Z,7.65
2019-03-19T13:47:36.102Z,6.53
2019-03-19T13:49:56.872Z,13.38
2019-03-19T13:52:17.525Z,9.45
2019-03-19T13:54:38.231Z,11.38
2019-03-19T13:56:58.738Z,8.03
2019-03-19T13:59:20.197Z,6.08
2019-03-19T14:01:40.774Z,13.03
2019-03-19T14:04:01.324Z,5.42
2019-03-19T14:06:21.948Z,7.75
2019-03-19T14:08:42.549Z,8.83
2019-03-19T14:11:03.138Z,9.75
2019-03-19T14:13:23.666Z,7.75
2019-03-19T14:15:44.218Z,5.78
2019-03-19T14:18:09.211Z,6.10
2019-03-19T14:20:29.758Z,7.00
2019-03-19T14:22:49.922Z,6.40
2019-03-19T14:25:11.717Z,3.77
2019-03-19T14:27:32.346Z,4.10
2019-03-19T14:29:53.139Z,5.40
2019-03-19T14:32:13.186Z,5.05
2019-03-19T14:34:33.760Z,7.42
2019-03-19T14:36:54.289Z,5.70
2019-03-19T14:39:15.020Z,7.67
2019-03-19T14:41:35.618Z,5.00
2019-03-19T14:43:57.245Z,6.97
2019-03-19T14:46:17.850Z,7.62
2019-03-19T14:48:38.352Z,7.12
2019-03-19T14:50:58.900Z,5.90
2019-03-19T14:53:19.503Z,4.67
2019-03-19T14:55:40.121Z,6.30
2019-03-19T14:58:00.629Z,8.40
2019-03-19T15:00:22.322Z,7.62
2019-03-19T15:02:43.007Z,10.03
2019-03-19T15:05:04.842Z,10.70
2019-03-19T15:07:25.427Z,8.75
2019-03-19T15:09:45.951Z,6.80
2019-03-19T15:12:06.536Z,4.47
2019-03-19T15:14:27.000Z,7.65
2019-03-19T15:16:47.690Z,7.42
2019-03-19T15:19:08.166Z,11.85
2019-03-19T15:21:28.825Z,8.00
2019-03-19T15:23:49.810Z,8.98
2019-03-19T15:26:10.348Z,8.68
2019-03-19T15:28:30.882Z,9.50
2019-03-19T15:30:51.492Z,9.05
2019-03-19T15:33:12.003Z,12.13
2019-03-19T15:35:32.740Z,9.63
2019-03-19T15:37:53.371Z,10.23
2019-03-19T15:40:17.959Z,11.85
2019-03-19T15:42:38.489Z,11.80
2019-03-19T15:44:59.047Z,18.65
2019-03-19T15:47:19.549Z,15.28
2019-03-19T15:49:40.457Z,16.20
2019-03-19T15:52:01.172Z,13.83
2019-03-19T15:54:21.863Z,12.43
2019-03-19T15:57:01.813Z,9.53
2019-03-19T15:59:22.338Z,12.40
2019-03-19T16:01:42.973Z,15.15
2019-03-19T16:04:03.641Z,10.58
2019-03-19T16:06:24.165Z,16.12
2019-03-19T16:08:44.714Z,13.72
2019-03-19T16:11:05.304Z,11.70
2019-03-19T16:13:26.071Z,16.37
2019-03-19T16:15:46.624Z,10.82
2019-03-19T16:18:07.169Z,14.70
2019-03-19T16:20:27.638Z,14.85
2019-03-19T16:22:48.409Z,17.80
2019-03-19T16:25:09.273Z,15.03
2019-03-19T16:27:29.934Z,13.75
2019-03-19T16:29:50.565Z,17.77
2019-03-19T16:32:11.058Z,17.85
2019-03-19T16:34:31.618Z,16.60
2019-03-19T16:36:52.159Z,22.35
2019-03-19T16:39:14.139Z,20.35
2019-03-19T16:41:34.705Z,16.25
2019-03-19T16:43:55.365Z,16.75
2019-03-19T16:46:15.974Z,13.35
2019-03-19T16:48:36.550Z,16.87
2019-03-19T16:50:57.264Z,15.53
2019-03-19T16:53:17.938Z,14.40
2019-03-19T16:55:39.734Z,12.17
2019-03-19T16:58:00.450Z,15.60
2019-03-19T17:00:24.441Z,16.60
2019-03-19T17:02:45.377Z,17.17
2019-03-19T17:05:08.241Z,17.85
2019-03-19T17:07:30.221Z,16.23
2019-03-19T17:09:51.195Z,13.83
2019-03-19T17:12:11.904Z,19.20
2019-03-19T17:14:32.501Z,19.48
2019-03-19T17:16:53.217Z,19.12
2019-03-19T17:19:13.759Z,18.37
2019-03-19T17:21:34.339Z,14.80
2019-03-19T17:23:55.059Z,15.40
2019-03-19T17:26:15.912Z,20.30
2019-03-19T17:28:36.501Z,20.72
2019-03-19T17:30:57.346Z,22.20
2019-03-19T17:33:17.994Z,19.62
2019-03-19T17:35:38.613Z,17.00
2019-03-19T17:37:59.155Z,19.25
2019-03-19T17:40:19.798Z,18.92
2019-03-19T17:42:40.419Z,21.20
2019-03-19T17:45:00.980Z,18.00
2019-03-19T17:47:21.973Z,22.45
2019-03-19T17:49:42.670Z,23.92
2019-03-19T17:52:03.573Z,23.18
2019-03-19T17:54:24.139Z,26.20
2019-03-19T17:56:45.767Z,24.45
2019-03-19T17:59:06.386Z,30.25
2019-03-19T18:01:29.289Z,25.57
2019-03-19T18:03:49.551Z,35.05
2019-03-19T18:06:10.233Z,30.65
2019-03-19T18:08:30.859Z,29.18
2019-03-19T18:10:51.574Z,29.07
2019-03-19T18:13:12.388Z,35.20
2019-03-19T18:15:34.727Z,34.00
2019-03-19T18:17:54.765Z,39.47
2019-03-19T18:20:16.170Z,33.35
2019-03-19T18:22:36.722Z,39.83
2019-03-19T18:24:57.183Z,27.90
2019-03-19T18:27:17.844Z,29.55
2019-03-19T18:29:38.355Z,23.70
2019-03-19T18:31:59.035Z,23.10
2019-03-19T18:34:19.521Z,27.55
2019-03-19T18:36:40.136Z,27.80
2019-03-19T18:39:00.729Z,30.68
2019-03-19T18:41:21.649Z,24.75
2019-03-19T18:43:42.621Z,31.50
2019-03-19T18:46:05.438Z,29.52
2019-03-19T18:48:25.684Z,29.42
2019-03-19T18:50:46.382Z,29.60
2019-03-19T18:53:07.004Z,27.10
2019-03-19T18:55:27.547Z,26.62
2019-03-19T18:57:48.094Z,28.55
2019-03-19T19:00:20.963Z,38.42
2019-03-19T19:02:49.695Z,41.50
2019-03-19T19:05:03.205Z,41.33
2019-03-19T19:07:24.860Z,40.03
2019-03-19T19:09:45.506Z,34.75
2019-03-19T19:12:07.322Z,44.25
2019-03-19T19:14:27.915Z,36.00
2019-03-19T19:16:48.557Z,40.08
2019-03-19T19:19:10.001Z,34.75
2019-03-19T19:21:30.547Z,41.35
2019-03-19T19:23:51.167Z,47.35
2019-03-19T19:26:12.826Z,39.38
2019-03-19T19:28:33.389Z,38.05
2019-03-19T19:30:53.933Z,34.73
2019-03-19T19:33:14.573Z,37.48
2019-03-19T19:35:35.112Z,34.90
2019-03-19T19:37:55.705Z,29.63
2019-03-19T19:40:18.070Z,27.73
2019-03-19T19:42:38.311Z,30.02
2019-03-19T19:44:58.878Z,27.35
2019-03-19T19:47:19.666Z,27.17
2019-03-19T19:49:40.263Z,28.00
2019-03-19T19:52:04.567Z,30.52
2019-03-19T19:54:25.191Z,26.45
2019-03-19T19:56:46.799Z,30.50
2019-03-19T19:59:08.304Z,31.42
2019-03-19T20:01:29.640Z,28.40
2019-03-19T20:03:50.225Z,29.32
2019-03-19T20:06:11.089Z,27.17
2019-03-19T20:08:31.741Z,28.73
2019-03-19T20:10:52.277Z,29.23
2019-03-19T20:13:13.054Z,31.05
2019-03-19T20:15:33.587Z,30.52
2019-03-19T20:17:54.152Z,28.32
2019-03-19T20:20:27.748Z,27.75
2019-03-19T20:22:48.492Z,28.85
2019-03-19T20:25:09.297Z,31.00
2019-03-19T20:27:30.847Z,28.73
2019-03-19T20:29:51.510Z,32.55
2019-03-19T20:32:12.074Z,32.67
2019-03-19T20:34:32.620Z,29.05
2019-03-19T20:36:53.259Z,31.02
2019-03-19T20:39:13.862Z,29.75
2019-03-19T20:41:34.496Z,29.63
2019-03-19T20:43:55.296Z,33.80
2019-03-19T20:46:15.885Z,33.63
2019-03-19T20:48:36.609Z,27.85
2019-03-19T20:50:57.762Z,25.08
2019-03-19T20:53:19.836Z,31.42
2019-03-19T20:55:42.373Z,27.20
2019-03-19T20:58:03.038Z,38.70
2019-03-19T21:00:23.804Z,23.35
2019-03-19T21:02:44.539Z,28.07
2019-03-19T21:05:05.342Z,35.35
2019-03-19T21:07:26.083Z,29.57
2019-03-19T21:09:46.616Z,32.45
2019-03-19T21:12:07.684Z,26.95
2019-03-19T21:14:28.520Z,32.38
2019-03-19T21:16:49.217Z,30.72
2019-03-19T21:19:10.113Z,23.07
2019-03-19T21:21:30.900Z,22.30
2019-03-19T21:23:52.464Z,25.62
2019-03-19T21:26:13.079Z,26.23
2019-03-19T21:28:33.607Z,24.55
2019-03-19T21:30:54.245Z,33.88
2019-03-19T21:33:15.068Z,29.35
2019-03-19T21:35:35.595Z,27.25
2019-03-19T21:37:56.333Z,20.80
2019-03-19T21:40:17.047Z,27.20
2019-03-19T21:42:37.859Z,27.75
2019-03-19T21:44:58.307Z,26.15
2019-03-19T21:47:18.855Z,34.08
2019-03-19T21:49:40.368Z,30.97
2019-03-19T21:52:01.065Z,33.48
2019-03-19T21:54:21.782Z,31.85
2019-03-19T21:56:42.684Z,31.35
2019-03-19T21:59:03.464Z,26.27
2019-03-19T22:01:24.046Z,27.15
2019-03-19T22:03:44.563Z,26.97
2019-03-19T22:06:05.227Z,32.70
2019-03-19T22:08:25.808Z,27.10
2019-03-19T22:10:46.549Z,28.45
2019-03-19T22:13:07.154Z,23.30
2019-03-19T22:15:27.759Z,30.40
2019-03-19T22:17:48.350Z,21.65
2019-03-19T22:20:09.388Z,23.32
2019-03-19T22:22:30.001Z,20.80
2019-03-19T22:24:50.584Z,23.87
2019-03-19T22:27:11.146Z,17.57
2019-03-19T22:29:31.783Z,20.68
2019-03-19T22:31:52.527Z,22.10
2019-03-19T22:34:15.957Z,21.30
2019-03-19T22:36:36.488Z,22.90
2019-03-19T22:38:56.977Z,23.75
2019-03-19T22:41:19.731Z,23.05
2019-03-19T22:43:39.989Z,19.10
2019-03-19T22:46:07.084Z,20.32
2019-03-19T22:48:27.718Z,25.32
2019-03-19T22:50:48.296Z,20.02
2019-03-19T22:53:09.848Z,21.10
2019-03-19T22:55:30.328Z,20.75
2019-03-19T22:57:50.893Z,30.43
2019-03-19T23:00:27.065Z,19.95
2019-03-19T23:02:49.335Z,24.20
2019-03-19T23:05:10.109Z,22.17
2019-03-19T23:07:30.646Z,18.70
2019-03-19T23:09:51.209Z,19.80
2019-03-19T23:12:13.527Z,15.88
2019-03-19T23:14:34.078Z,22.93
2019-03-19T23:16:54.806Z,20.80
2019-03-19T23:19:15.322Z,23.40
2019-03-19T23:21:35.941Z,23.55
2019-03-19T23:23:56.476Z,25.68
2019-03-19T23:26:17.144Z,29.18
2019-03-19T23:28:37.917Z,29.85
2019-03-19T23:30:58.536Z,27.82
2019-03-19T23:33:19.012Z,28.70
2019-03-19T23:35:39.489Z,27.50
2019-03-19T23:38:00.194Z,30.92
2019-03-19T23:40:21.515Z,21.52
2019-03-19T23:42:42.255Z,24.32
2019-03-19T23:45:02.956Z,27.17
2019-03-19T23:47:23.940Z,24.70
2019-03-19T23:49:44.548Z,20.70
2019-03-19T23:52:05.240Z,27.02
2019-03-19T23:54:25.779Z,27.42
2019-03-19T23:56:48.366Z,22.45
2019-03-19T23:59:08.695Z,23.73
